sensor_id;sensor_type;location;lat;lon;timestamp;pressure;altitude;pressure_sealevel;temperature;humidity
35519;BME280;21627;48.216;16.482;2023-02-28T00:01:39;100840.53;;;-0.36;84.35
35519;BME280;21627;48.216;16.482;2023-02-28T00:04:06;100841.31;;;-0.37;84.11
35519;BME280;21627;48.216;16.482;2023-02-28T00:06:36;100828.22;;;-0.44;84.46
35519;BME280;21627;48.216;16.482;2023-02-28T00:09:06;100841.81;;;-0.43;85.07
35519;BME280;21627;48.216;16.482;2023-02-28T00:11:33;100844.34;;;-0.43;84.89
35519;BME280;21627;48.216;16.482;2023-02-28T00:14:01;100840.88;;;-0.45;84.86
35519;BME280;21627;48.216;16.482;2023-02-28T00:16:28;100833.63;;;-0.52;85.09
35519;BME280;21627;48.216;16.482;2023-02-28T00:18:56;100828.75;;;-0.49;84.70
35519;BME280;21627;48.216;16.482;2023-02-28T00:21:23;100845.25;;;-0.42;85.23
35519;BME280;21627;48.216;16.482;2023-02-28T00:23:51;100837.06;;;-0.52;85.21
35519;BME280;21627;48.216;16.482;2023-02-28T00:26:19;100840.56;;;-0.50;85.41
35519;BME280;21627;48.216;16.482;2023-02-28T00:28:48;100840.09;;;-0.57;85.21
35519;BME280;21627;48.216;16.482;2023-02-28T00:31:15;100849.84;;;-0.50;85.68
35519;BME280;21627;48.216;16.482;2023-02-28T00:33:42;100848.19;;;-0.50;85.83
35519;BME280;21627;48.216;16.482;2023-02-28T00:36:15;100840.56;;;-0.50;85.69
35519;BME280;21627;48.216;16.482;2023-02-28T00:38:43;100849.75;;;-0.52;86.00
35519;BME280;21627;48.216;16.482;2023-02-28T00:41:10;100855.88;;;-0.48;85.67
35519;BME280;21627;48.216;16.482;2023-02-28T00:43:39;100844.50;;;-0.55;86.08
35519;BME280;21627;48.216;16.482;2023-02-28T00:46:06;100840.09;;;-0.57;86.52
35519;BME280;21627;48.216;16.482;2023-02-28T00:48:34;100855.81;;;-0.50;86.44
35519;BME280;21627;48.216;16.482;2023-02-28T00:51:02;100861.88;;;-0.48;86.03
35519;BME280;21627;48.216;16.482;2023-02-28T00:53:29;100857.56;;;-0.49;86.18
35519;BME280;21627;48.216;16.482;2023-02-28T00:55:57;100844.31;;;-0.58;86.16
35519;BME280;21627;48.216;16.482;2023-02-28T00:58:25;100839.41;;;-0.55;86.05
35519;BME280;21627;48.216;16.482;2023-02-28T01:00:53;100860.09;;;-0.49;86.13
35519;BME280;21627;48.216;16.482;2023-02-28T01:03:21;100859.22;;;-0.49;85.93
35519;BME280;21627;48.216;16.482;2023-02-28T01:05:49;100852.81;;;-0.57;86.82
35519;BME280;21627;48.216;16.482;2023-02-28T01:08:17;100855.88;;;-0.48;85.90
35519;BME280;21627;48.216;16.482;2023-02-28T01:10:45;100846.34;;;-0.52;85.33
35519;BME280;21627;48.216;16.482;2023-02-28T01:13:13;100845.00;;;-0.60;85.05
35519;BME280;21627;48.216;16.482;2023-02-28T01:15:52;100857.25;;;-0.53;85.55
35519;BME280;21627;48.216;16.482;2023-02-28T01:18:21;100858.84;;;-0.55;84.96
35519;BME280;21627;48.216;16.482;2023-02-28T01:20:49;100862.56;;;-0.50;85.24
35519;BME280;21627;48.216;16.482;2023-02-28T01:23:16;100848.59;;;-0.57;85.68
35519;BME280;21627;48.216;16.482;2023-02-28T01:25:43;100859.81;;;-0.53;85.73
35519;BME280;21627;48.216;16.482;2023-02-28T01:28:10;100852.09;;;-0.55;85.15
35519;BME280;21627;48.216;16.482;2023-02-28T01:30:38;100861.75;;;-0.49;85.18
35519;BME280;21627;48.216;16.482;2023-02-28T01:33:05;100866.66;;;-0.52;85.38
35519;BME280;21627;48.216;16.482;2023-02-28T01:35:34;100868.91;;;-0.57;85.60
35519;BME280;21627;48.216;16.482;2023-02-28T01:38:03;100868.13;;;-0.56;85.39
35519;BME280;21627;48.216;16.482;2023-02-28T01:40:47;100864.69;;;-0.56;85.41
35519;BME280;21627;48.216;16.482;2023-02-28T01:43:28;100859.63;;;-0.56;84.56
35519;BME280;21627;48.216;16.482;2023-02-28T01:45:58;100857.69;;;-0.60;84.56
35519;BME280;21627;48.216;16.482;2023-02-28T01:48:34;100865.88;;;-0.51;84.67
35519;BME280;21627;48.216;16.482;2023-02-28T01:51:10;100869.03;;;-0.55;85.48
35519;BME280;21627;48.216;16.482;2023-02-28T01:53:44;100855.44;;;-0.69;85.55
35519;BME280;21627;48.216;16.482;2023-02-28T01:56:15;100885.72;;;-0.59;85.91
35519;BME280;21627;48.216;16.482;2023-02-28T01:58:49;100876.53;;;-0.57;86.00
35519;BME280;21627;48.216;16.482;2023-02-28T02:01:18;100869.91;;;-0.55;85.61
35519;BME280;21627;48.216;16.482;2023-02-28T02:03:57;100867.44;;;-0.53;85.39
35519;BME280;21627;48.216;16.482;2023-02-28T02:06:31;100872.44;;;-0.55;85.47
35519;BME280;21627;48.216;16.482;2023-02-28T02:09:00;100868.22;;;-0.54;85.26
35519;BME280;21627;48.216;16.482;2023-02-28T02:11:28;100857.59;;;-0.62;84.87
35519;BME280;21627;48.216;16.482;2023-02-28T02:17:14;100873.50;;;-0.51;85.26
35519;BME280;21627;48.216;16.482;2023-02-28T02:20:19;100874.34;;;-0.51;85.23
35519;BME280;21627;48.216;16.482;2023-02-28T02:39:10;100862.75;;;-0.74;84.77
35519;BME280;21627;48.216;16.482;2023-02-28T02:41:52;100871.78;;;-0.66;84.94
35519;BME280;21627;48.216;16.482;2023-02-28T02:44:40;100870.56;;;-0.71;85.42
35519;BME280;21627;48.216;16.482;2023-02-28T02:47:18;100858.28;;;-0.78;85.97
35519;BME280;21627;48.216;16.482;2023-02-28T02:49:54;100868.53;;;-0.76;85.82
35519;BME280;21627;48.216;16.482;2023-02-28T02:52:31;100846.56;;;-0.89;86.59
35519;BME280;21627;48.216;16.482;2023-02-28T02:55:03;100857.81;;;-0.85;86.47
35519;BME280;21627;48.216;16.482;2023-02-28T02:57:38;100866.50;;;-0.82;87.75
35519;BME280;21627;48.216;16.482;2023-02-28T03:00:09;100860.16;;;-0.75;87.79
35519;BME280;21627;48.216;16.482;2023-02-28T03:02:38;100866.00;;;-0.76;87.81
35519;BME280;21627;48.216;16.482;2023-02-28T03:05:19;100855.75;;;-0.78;87.69
35519;BME280;21627;48.216;16.482;2023-02-28T03:07:48;100860.63;;;-0.81;87.99
35519;BME280;21627;48.216;16.482;2023-02-28T03:10:41;100861.41;;;-0.82;87.89
35519;BME280;21627;48.216;16.482;2023-02-28T03:15:58;100864.44;;;-0.88;88.86
35519;BME280;21627;48.216;16.482;2023-02-28T03:24:48;100860.31;;;-0.99;89.50
35519;BME280;21627;48.216;16.482;2023-02-28T03:27:42;100854.88;;;-1.05;89.65
35519;BME280;21627;48.216;16.482;2023-02-28T03:33:34;100853.97;;;-1.19;89.75
35519;BME280;21627;48.216;16.482;2023-02-28T03:36:14;100851.06;;;-1.25;89.57
35519;BME280;21627;48.216;16.482;2023-02-28T03:39:05;100866.38;;;-1.23;90.10
35519;BME280;21627;48.216;16.482;2023-02-28T03:41:45;100863.63;;;-1.26;90.61
35519;BME280;21627;48.216;16.482;2023-02-28T03:44:44;100860.22;;;-1.27;90.64
35519;BME280;21627;48.216;16.482;2023-02-28T03:47:21;100854.06;;;-1.31;91.65
35519;BME280;21627;48.216;16.482;2023-02-28T03:50:23;100857.06;;;-1.36;91.93
35519;BME280;21627;48.216;16.482;2023-02-28T03:53:04;100854.44;;;-1.38;92.04
35519;BME280;21627;48.216;16.482;2023-02-28T03:55:42;100854.81;;;-1.45;92.55
35519;BME280;21627;48.216;16.482;2023-02-28T04:03:42;100863.00;;;-1.49;93.33
35519;BME280;21627;48.216;16.482;2023-02-28T04:06:16;100860.25;;;-1.52;93.84
35519;BME280;21627;48.216;16.482;2023-02-28T04:08:49;100855.88;;;-1.55;94.87
35519;BME280;21627;48.216;16.482;2023-02-28T04:11:42;100858.84;;;-1.48;94.88
35519;BME280;21627;48.216;16.482;2023-02-28T04:14:10;100871.03;;;-1.43;94.86
35519;BME280;21627;48.216;16.482;2023-02-28T04:16:41;100865.75;;;-1.46;95.45
35519;BME280;21627;48.216;16.482;2023-02-28T04:19:11;100872.88;;;-1.40;95.67
35519;BME280;21627;48.216;16.482;2023-02-28T04:21:42;100874.63;;;-1.39;96.28
35519;BME280;21627;48.216;16.482;2023-02-28T04:24:16;100855.63;;;-1.46;96.93
35519;BME280;21627;48.216;16.482;2023-02-28T04:26:51;100844.06;;;-1.54;97.09
35519;BME280;21627;48.216;16.482;2023-02-28T04:29:28;100872.22;;;-1.38;97.55
35519;BME280;21627;48.216;16.482;2023-02-28T04:31:56;100880.81;;;-1.36;97.24
35519;BME280;21627;48.216;16.482;2023-02-28T04:34:29;100874.94;;;-1.35;97.18
35519;BME280;21627;48.216;16.482;2023-02-28T04:36:57;100874.16;;;-1.34;96.88
35519;BME280;21627;48.216;16.482;2023-02-28T04:39:39;100873.50;;;-1.31;97.28
35519;BME280;21627;48.216;16.482;2023-02-28T04:42:07;100875.06;;;-1.33;96.81
35519;BME280;21627;48.216;16.482;2023-02-28T04:44:34;100871.53;;;-1.35;97.39
35519;BME280;21627;48.216;16.482;2023-02-28T04:47:02;100864.84;;;-1.46;97.56
35519;BME280;21627;48.216;16.482;2023-02-28T04:49:29;100870.22;;;-1.42;98.02
35519;BME280;21627;48.216;16.482;2023-02-28T04:51:56;100857.72;;;-1.52;97.60
35519;BME280;21627;48.216;16.482;2023-02-28T04:54:24;100880.06;;;-1.46;97.96
35519;BME280;21627;48.216;16.482;2023-02-28T04:56:51;100878.13;;;-1.50;97.69
35519;BME280;21627;48.216;16.482;2023-02-28T04:59:18;100883.00;;;-1.54;97.71
35519;BME280;21627;48.216;16.482;2023-02-28T05:01:47;100871.25;;;-1.65;97.67
35519;BME280;21627;48.216;16.482;2023-02-28T05:04:15;100885.78;;;-1.62;98.06
35519;BME280;21627;48.216;16.482;2023-02-28T05:06:43;100889.88;;;-1.64;98.13
35519;BME280;21627;48.216;16.482;2023-02-28T05:09:10;100882.75;;;-1.70;98.06
35519;BME280;21627;48.216;16.482;2023-02-28T05:11:41;100876.69;;;-1.72;98.60
35519;BME280;21627;48.216;16.482;2023-02-28T05:14:13;100874.75;;;-1.76;98.68
35519;BME280;21627;48.216;16.482;2023-02-28T05:16:41;100864.97;;;-1.83;99.26
35519;BME280;21627;48.216;16.482;2023-02-28T05:19:08;100881.38;;;-1.78;99.51
35519;BME280;21627;48.216;16.482;2023-02-28T05:21:41;100882.22;;;-1.78;99.93
35519;BME280;21627;48.216;16.482;2023-02-28T05:24:12;100879.69;;;-1.78;100.00
35519;BME280;21627;48.216;16.482;2023-02-28T05:26:42;100876.66;;;-1.85;100.00
35519;BME280;21627;48.216;16.482;2023-02-28T05:29:10;100866.97;;;-1.91;100.00
35519;BME280;21627;48.216;16.482;2023-02-28T05:31:37;100884.13;;;-1.87;100.00
35519;BME280;21627;48.216;16.482;2023-02-28T05:34:05;100890.09;;;-1.86;100.00
35519;BME280;21627;48.216;16.482;2023-02-28T05:36:33;100893.53;;;-1.86;100.00
35519;BME280;21627;48.216;16.482;2023-02-28T05:39:00;100881.31;;;-1.91;100.00
35519;BME280;21627;48.216;16.482;2023-02-28T05:41:28;100899.47;;;-1.85;100.00
35519;BME280;21627;48.216;16.482;2023-02-28T05:43:56;100894.28;;;-1.87;100.00
35519;BME280;21627;48.216;16.482;2023-02-28T05:46:23;100898.91;;;-1.81;100.00
35519;BME280;21627;48.216;16.482;2023-02-28T05:48:51;100902.31;;;-1.81;100.00
35519;BME280;21627;48.216;16.482;2023-02-28T05:51:18;100909.13;;;-1.80;100.00
35519;BME280;21627;48.216;16.482;2023-02-28T05:53:46;100909.25;;;-1.78;100.00
35519;BME280;21627;48.216;16.482;2023-02-28T05:56:15;100923.59;;;-1.79;100.00
35519;BME280;21627;48.216;16.482;2023-02-28T05:58:42;100905.91;;;-1.77;100.00
35519;BME280;21627;48.216;16.482;2023-02-28T06:01:36;100918.03;;;-1.73;100.00
35519;BME280;21627;48.216;16.482;2023-02-28T06:04:06;100900.97;;;-1.76;100.00
35519;BME280;21627;48.216;16.482;2023-02-28T06:06:33;100917.31;;;-1.59;100.00
35519;BME280;21627;48.216;16.482;2023-02-28T06:09:04;100906.19;;;-1.61;100.00
35519;BME280;21627;48.216;16.482;2023-02-28T06:11:32;100920.94;;;-1.55;100.00
35519;BME280;21627;48.216;16.482;2023-02-28T06:14:01;100919.22;;;-1.43;100.00
35519;BME280;21627;48.216;16.482;2023-02-28T06:16:31;100906.13;;;-1.49;100.00
35519;BME280;21627;48.216;16.482;2023-02-28T06:19:03;100924.28;;;-1.43;99.49
35519;BME280;21627;48.216;16.482;2023-02-28T06:21:31;100907.03;;;-1.48;100.00
35519;BME280;21627;48.216;16.482;2023-02-28T06:24:02;100920.50;;;-1.36;100.00
35519;BME280;21627;48.216;16.482;2023-02-28T06:26:30;100920.50;;;-1.36;99.68
35519;BME280;21627;48.216;16.482;2023-02-28T06:28:58;100921.47;;;-1.34;99.04
35519;BME280;21627;48.216;16.482;2023-02-28T06:31:25;100920.28;;;-1.39;99.14
35519;BME280;21627;48.216;16.482;2023-02-28T06:33:53;100930.94;;;-1.32;98.36
35519;BME280;21627;48.216;16.482;2023-02-28T06:36:20;100934.38;;;-1.31;98.44
35519;BME280;21627;48.216;16.482;2023-02-28T06:38:48;100926.00;;;-1.30;99.04
35519;BME280;21627;48.216;16.482;2023-02-28T06:41:26;100940.06;;;-1.22;98.33
35519;BME280;21627;48.216;16.482;2023-02-28T06:43:55;100929.59;;;-1.26;99.16
35519;BME280;21627;48.216;16.482;2023-02-28T06:46:23;100929.91;;;-1.22;99.33
35519;BME280;21627;48.216;16.482;2023-02-28T06:48:50;100941.84;;;-1.07;97.94
35519;BME280;21627;48.216;16.482;2023-02-28T06:51:19;100930.91;;;-1.06;96.77
35519;BME280;21627;48.216;16.482;2023-02-28T06:53:51;100958.56;;;-0.98;96.71
35519;BME280;21627;48.216;16.482;2023-02-28T06:56:19;100938.81;;;-1.02;96.57
35519;BME280;21627;48.216;16.482;2023-02-28T06:58:49;100932.56;;;-0.94;97.01
35519;BME280;21627;48.216;16.482;2023-02-28T07:01:20;100947.63;;;-0.83;97.20
35519;BME280;21627;48.216;16.482;2023-02-28T07:03:50;100942.09;;;-0.78;97.04
35519;BME280;21627;48.216;16.482;2023-02-28T07:06:21;100938.25;;;-0.71;96.98
35519;BME280;21627;48.216;16.482;2023-02-28T07:08:53;100942.78;;;-0.67;97.28
35519;BME280;21627;48.216;16.482;2023-02-28T07:11:23;100937.19;;;-0.61;95.51
35519;BME280;21627;48.216;16.482;2023-02-28T07:13:56;100944.72;;;-0.50;95.83
35519;BME280;21627;48.216;16.482;2023-02-28T07:16:24;100934.44;;;-0.51;96.30
35519;BME280;21627;48.216;16.482;2023-02-28T07:18:53;100944.03;;;-0.34;96.41
35519;BME280;21627;48.216;16.482;2023-02-28T07:21:21;100941.78;;;-0.29;95.85
35519;BME280;21627;48.216;16.482;2023-02-28T07:23:49;100947.81;;;-0.14;93.85
35519;BME280;21627;48.216;16.482;2023-02-28T07:26:22;100939.38;;;-0.13;91.45
35519;BME280;21627;48.216;16.482;2023-02-28T07:28:50;100953.94;;;0.03;90.40
35519;BME280;21627;48.216;16.482;2023-02-28T07:31:24;100938.06;;;0.07;89.69
35519;BME280;21627;48.216;16.482;2023-02-28T07:33:51;100957.69;;;0.23;89.83
35519;BME280;21627;48.216;16.482;2023-02-28T07:36:18;100946.84;;;0.26;90.07
35519;BME280;21627;48.216;16.482;2023-02-28T07:38:47;100959.59;;;0.40;88.96
35519;BME280;21627;48.216;16.482;2023-02-28T07:41:20;100961.28;;;0.55;87.54
35519;BME280;21627;48.216;16.482;2023-02-28T07:43:48;100955.50;;;0.57;88.52
35519;BME280;21627;48.216;16.482;2023-02-28T07:46:16;100950.69;;;0.62;88.38
35519;BME280;21627;48.216;16.482;2023-02-28T07:48:45;100971.25;;;0.80;87.75
35519;BME280;21627;48.216;16.482;2023-02-28T07:51:12;100978.34;;;0.85;86.27
35519;BME280;21627;48.216;16.482;2023-02-28T07:53:39;100971.16;;;0.93;85.94
35519;BME280;21627;48.216;16.482;2023-02-28T07:56:10;100952.41;;;0.91;84.83
35519;BME280;21627;48.216;16.482;2023-02-28T07:58:40;100974.09;;;1.14;85.78
35519;BME280;21627;48.216;16.482;2023-02-28T08:01:09;100974.88;;;1.28;85.87
35519;BME280;21627;48.216;16.482;2023-02-28T08:03:38;100976.38;;;1.39;83.57
35519;BME280;21627;48.216;16.482;2023-02-28T08:06:07;100977.13;;;1.53;83.55
35519;BME280;21627;48.216;16.482;2023-02-28T08:08:35;100958.75;;;1.59;83.80
35519;BME280;21627;48.216;16.482;2023-02-28T08:11:03;100965.03;;;1.80;82.79
35519;BME280;21627;48.216;16.482;2023-02-28T08:13:31;100961.16;;;1.87;81.74
35519;BME280;21627;48.216;16.482;2023-02-28T08:15:58;100956.94;;;1.87;79.96
35519;BME280;21627;48.216;16.482;2023-02-28T08:18:28;100971.63;;;2.08;80.74
35519;BME280;21627;48.216;16.482;2023-02-28T08:20:55;100956.03;;;2.02;81.02
35519;BME280;21627;48.216;16.482;2023-02-28T08:23:23;100976.44;;;2.18;80.77
35519;BME280;21627;48.216;16.482;2023-02-28T08:25:56;100972.78;;;2.29;79.40
35519;BME280;21627;48.216;16.482;2023-02-28T08:28:24;100973.41;;;2.42;77.36
35519;BME280;21627;48.216;16.482;2023-02-28T08:30:56;100977.78;;;2.44;76.53
35519;BME280;21627;48.216;16.482;2023-02-28T08:33:24;100973.09;;;2.52;74.38
35519;BME280;21627;48.216;16.482;2023-02-28T08:35:56;100962.34;;;2.57;75.81
35519;BME280;21627;48.216;16.482;2023-02-28T08:38:24;100960.41;;;2.70;77.24
35519;BME280;21627;48.216;16.482;2023-02-28T08:40:58;100965.78;;;2.92;74.64
35519;BME280;21627;48.216;16.482;2023-02-28T08:43:26;100975.56;;;3.17;74.75
35519;BME280;21627;48.216;16.482;2023-02-28T08:45:57;100973.38;;;3.25;71.33
35519;BME280;21627;48.216;16.482;2023-02-28T08:48:30;100970.53;;;3.37;71.87
35519;BME280;21627;48.216;16.482;2023-02-28T08:51:08;100983.34;;;3.73;70.33
35519;BME280;21627;48.216;16.482;2023-02-28T08:53:37;100970.25;;;3.84;69.34
35519;BME280;21627;48.216;16.482;2023-02-28T08:56:13;100970.91;;;3.98;66.53
35519;BME280;21627;48.216;16.482;2023-02-28T08:58:40;100972.19;;;4.08;65.77
35519;BME280;21627;48.216;16.482;2023-02-28T09:01:14;100988.31;;;4.25;65.67
35519;BME280;21627;48.216;16.482;2023-02-28T09:03:42;100979.97;;;4.29;64.95
35519;BME280;21627;48.216;16.482;2023-02-28T09:06:10;100988.28;;;4.62;65.81
35519;BME280;21627;48.216;16.482;2023-02-28T09:08:39;100985.56;;;4.78;66.21
35519;BME280;21627;48.216;16.482;2023-02-28T09:11:06;100972.41;;;4.90;63.42
35519;BME280;21627;48.216;16.482;2023-02-28T09:13:34;100983.81;;;5.18;63.74
35519;BME280;21627;48.216;16.482;2023-02-28T09:16:05;100987.34;;;5.21;61.99
35519;BME280;21627;48.216;16.482;2023-02-28T09:18:35;100988.38;;;5.25;61.83
35519;BME280;21627;48.216;16.482;2023-02-28T09:21:08;100979.19;;;5.09;60.70
35519;BME280;21627;48.216;16.482;2023-02-28T09:23:36;100992.44;;;4.80;61.28
35519;BME280;21627;48.216;16.482;2023-02-28T09:26:07;101001.19;;;4.46;61.52
35519;BME280;21627;48.216;16.482;2023-02-28T09:28:34;101000.84;;;4.19;63.87
35519;BME280;21627;48.216;16.482;2023-02-28T09:31:04;100991.81;;;3.89;65.01
35519;BME280;21627;48.216;16.482;2023-02-28T09:33:32;101000.72;;;3.80;65.95
35519;BME280;21627;48.216;16.482;2023-02-28T09:36:03;101000.44;;;3.74;67.25
35519;BME280;21627;48.216;16.482;2023-02-28T09:38:30;100988.41;;;3.71;68.17
35519;BME280;21627;48.216;16.482;2023-02-28T09:41:10;100989.78;;;3.64;67.35
35519;BME280;21627;48.216;16.482;2023-02-28T09:43:44;101004.84;;;3.76;66.84
35519;BME280;21627;48.216;16.482;2023-02-28T09:46:37;101010.00;;;3.60;67.48
35519;BME280;21627;48.216;16.482;2023-02-28T09:49:46;101004.09;;;3.61;67.48
35519;BME280;21627;48.216;16.482;2023-02-28T09:52:18;101004.53;;;3.70;68.64
35519;BME280;21627;48.216;16.482;2023-02-28T09:54:46;100995.38;;;3.75;68.44
35519;BME280;21627;48.216;16.482;2023-02-28T09:57:36;101012.50;;;3.94;66.84
35519;BME280;21627;48.216;16.482;2023-02-28T10:00:22;100988.72;;;3.97;66.16
35519;BME280;21627;48.216;16.482;2023-02-28T10:11:33;100993.31;;;4.61;66.61
35519;BME280;21627;48.216;16.482;2023-02-28T10:14:10;101008.69;;;4.80;65.91
35519;BME280;21627;48.216;16.482;2023-02-28T10:19:16;100997.13;;;5.09;64.52
35519;BME280;21627;48.216;16.482;2023-02-28T10:21:59;101000.34;;;5.25;64.13
35519;BME280;21627;48.216;16.482;2023-02-28T10:24:40;100998.41;;;5.40;61.48
35519;BME280;21627;48.216;16.482;2023-02-28T10:27:17;100997.25;;;5.54;62.91
35519;BME280;21627;48.216;16.482;2023-02-28T10:29:51;100990.53;;;5.79;62.18
35519;BME280;21627;48.216;16.482;2023-02-28T10:32:32;100995.25;;;6.12;61.32
35519;BME280;21627;48.216;16.482;2023-02-28T10:35:18;100990.66;;;6.49;60.50
35519;BME280;21627;48.216;16.482;2023-02-28T10:37:49;100975.03;;;6.43;57.53
35519;BME280;21627;48.216;16.482;2023-02-28T10:43:39;100980.47;;;6.28;58.88
35519;BME280;21627;48.216;16.482;2023-02-28T10:48:47;100969.06;;;6.68;58.00
35519;BME280;21627;48.216;16.482;2023-02-28T10:51:19;100947.75;;;6.23;57.01
35519;BME280;21627;48.216;16.482;2023-02-28T10:53:54;100968.03;;;6.39;58.74
35519;BME280;21627;48.216;16.482;2023-02-28T10:56:30;100962.19;;;6.43;58.24
35519;BME280;21627;48.216;16.482;2023-02-28T10:59:31;100958.19;;;6.27;59.19
35519;BME280;21627;48.216;16.482;2023-02-28T11:01:58;100936.00;;;6.07;59.03
35519;BME280;21627;48.216;16.482;2023-02-28T11:07:02;100961.06;;;6.13;59.04
35519;BME280;21627;48.216;16.482;2023-02-28T11:09:39;100951.09;;;5.98;59.97
35519;BME280;21627;48.216;16.482;2023-02-28T11:15:00;100937.44;;;5.99;59.65
35519;BME280;21627;48.216;16.482;2023-02-28T11:17:32;100944.19;;;5.97;58.94
35519;BME280;21627;48.216;16.482;2023-02-28T11:20:06;100941.09;;;6.05;58.20
35519;BME280;21627;48.216;16.482;2023-02-28T11:22:38;100926.94;;;6.15;58.70
35519;BME280;21627;48.216;16.482;2023-02-28T11:25:30;100941.09;;;6.28;58.68
35519;BME280;21627;48.216;16.482;2023-02-28T11:28:05;100938.25;;;6.20;58.24
35519;BME280;21627;48.216;16.482;2023-02-28T11:30:40;100925.31;;;5.95;55.98
35519;BME280;21627;48.216;16.482;2023-02-28T11:33:42;100929.88;;;5.58;57.33
35519;BME280;21627;48.216;16.482;2023-02-28T11:38:48;100925.19;;;5.48;58.05
35519;BME280;21627;48.216;16.482;2023-02-28T11:52:53;100888.66;;;8.41;51.74
35519;BME280;21627;48.216;16.482;2023-02-28T11:55:31;100899.09;;;8.78;51.05
35519;BME280;21627;48.216;16.482;2023-02-28T12:07:35;100893.50;;;8.31;51.27
35519;BME280;21627;48.216;16.482;2023-02-28T12:13:01;100884.41;;;8.75;48.99
35519;BME280;21627;48.216;16.482;2023-02-28T12:19:27;100882.84;;;8.82;50.41
35519;BME280;21627;48.216;16.482;2023-02-28T12:27:21;100875.06;;;9.92;47.02
35519;BME280;21627;48.216;16.482;2023-02-28T12:30:16;100875.47;;;10.11;43.94
35519;BME280;21627;48.216;16.482;2023-02-28T12:33:12;100866.78;;;9.66;46.54
35519;BME280;21627;48.216;16.482;2023-02-28T12:35:54;100864.50;;;9.41;45.46
35519;BME280;21627;48.216;16.482;2023-02-28T12:38:28;100869.59;;;9.01;44.61
35519;BME280;21627;48.216;16.482;2023-02-28T12:41:13;100866.56;;;8.50;45.24
35519;BME280;21627;48.216;16.482;2023-02-28T12:43:46;100858.00;;;8.19;48.02
35519;BME280;21627;48.216;16.482;2023-02-28T12:46:37;100854.88;;;7.70;47.66
35519;BME280;21627;48.216;16.482;2023-02-28T12:49:22;100870.53;;;7.76;47.99
35519;BME280;21627;48.216;16.482;2023-02-28T12:51:52;100871.63;;;7.56;50.10
35519;BME280;21627;48.216;16.482;2023-02-28T12:54:44;100858.56;;;7.21;50.11
35519;BME280;21627;48.216;16.482;2023-02-28T13:00:16;100853.56;;;6.99;52.74
35519;BME280;21627;48.216;16.482;2023-02-28T13:06:34;100860.63;;;7.33;48.94
35519;BME280;21627;48.216;16.482;2023-02-28T13:11:51;100856.91;;;7.23;49.50
35519;BME280;21627;48.216;16.482;2023-02-28T13:14:30;100842.81;;;7.12;48.49
35519;BME280;21627;48.216;16.482;2023-02-28T13:22:39;100831.84;;;7.75;48.23
35519;BME280;21627;48.216;16.482;2023-02-28T13:27:54;100823.47;;;8.14;47.30
35519;BME280;21627;48.216;16.482;2023-02-28T13:33:35;100826.91;;;8.13;46.30
35519;BME280;21627;48.216;16.482;2023-02-28T13:38:50;100826.63;;;8.02;46.24
35519;BME280;21627;48.216;16.482;2023-02-28T13:44:20;100815.47;;;8.35;46.65
35519;BME280;21627;48.216;16.482;2023-02-28T13:52:12;100837.66;;;9.73;44.14
35519;BME280;21627;48.216;16.482;2023-02-28T14:06:54;100837.59;;;11.13;40.01
35519;BME280;21627;48.216;16.482;2023-02-28T14:09:39;100830.31;;;10.88;40.67
35519;BME280;21627;48.216;16.482;2023-02-28T14:21:34;100834.06;;;9.65;43.32
35519;BME280;21627;48.216;16.482;2023-02-28T14:38:45;100821.09;;;10.52;41.16
35519;BME280;21627;48.216;16.482;2023-02-28T14:41:23;100813.97;;;10.40;41.95
35519;BME280;21627;48.216;16.482;2023-02-28T14:43:57;100806.50;;;10.55;41.59
35519;BME280;21627;48.216;16.482;2023-02-28T14:46:35;100802.53;;;10.77;41.01
35519;BME280;21627;48.216;16.482;2023-02-28T14:52:20;100817.66;;;10.06;41.93
35519;BME280;21627;48.216;16.482;2023-02-28T14:55:13;100813.19;;;9.56;42.67
35519;BME280;21627;48.216;16.482;2023-02-28T15:00:31;100825.66;;;8.98;43.76
35519;BME280;21627;48.216;16.482;2023-02-28T15:03:01;100822.97;;;8.59;44.72
35519;BME280;21627;48.216;16.482;2023-02-28T15:05:55;100818.59;;;8.23;45.12
35519;BME280;21627;48.216;16.482;2023-02-28T15:08:24;100812.75;;;7.97;47.20
35519;BME280;21627;48.216;16.482;2023-02-28T15:11:02;100824.78;;;7.68;46.98
35519;BME280;21627;48.216;16.482;2023-02-28T15:13:44;100824.75;;;7.37;46.73
35519;BME280;21627;48.216;16.482;2023-02-28T15:19:00;100829.97;;;7.12;50.05
35519;BME280;21627;48.216;16.482;2023-02-28T15:21:33;100818.97;;;6.89;51.16
35519;BME280;21627;48.216;16.482;2023-02-28T15:24:17;100828.53;;;6.93;50.17
35519;BME280;21627;48.216;16.482;2023-02-28T15:26:58;100815.22;;;6.79;50.41
35519;BME280;21627;48.216;16.482;2023-02-28T15:29:29;100821.97;;;6.76;50.23
35519;BME280;21627;48.216;16.482;2023-02-28T15:32:06;100822.50;;;6.65;50.25
35519;BME280;21627;48.216;16.482;2023-02-28T15:34:42;100831.97;;;6.42;51.97
35519;BME280;21627;48.216;16.482;2023-02-28T15:43:12;100827.00;;;5.97;53.49
35519;BME280;21627;48.216;16.482;2023-02-28T15:45:50;100828.97;;;5.82;53.43
35519;BME280;21627;48.216;16.482;2023-02-28T15:48:31;100826.38;;;5.82;54.30
35519;BME280;21627;48.216;16.482;2023-02-28T15:51:24;100831.50;;;5.80;53.86
35519;BME280;21627;48.216;16.482;2023-02-28T15:54:07;100829.50;;;5.73;54.98
35519;BME280;21627;48.216;16.482;2023-02-28T15:59:27;100816.69;;;5.51;55.12
35519;BME280;21627;48.216;16.482;2023-02-28T16:02:16;100827.03;;;5.52;54.82
35519;BME280;21627;48.216;16.482;2023-02-28T16:07:42;100829.16;;;5.41;55.70
35519;BME280;21627;48.216;16.482;2023-02-28T16:10:12;100823.72;;;5.32;55.85
35519;BME280;21627;48.216;16.482;2023-02-28T16:12:41;100831.09;;;5.25;56.00
35519;BME280;21627;48.216;16.482;2023-02-28T16:15:23;100828.06;;;5.12;56.43
35519;BME280;21627;48.216;16.482;2023-02-28T16:17:54;100813.25;;;5.05;56.23